Pagina principale
METAR-TAF:

METAR-TAF

Aeroporti :

Yeovilton, Inghilterra

latitudine: 51-00N, longitudine: 002-38W, altezza: 23 m

Osservazione

Il bollettino è stato emesso 30 minuti fa, alle 09:50 UTC
Vento 6 kt da ovest
Temperature 16°C
Umidità 59%
Pressione 1009 hPa
Visibilità 10 km o più

METAR: EGDY 070950Z AUTO 28006KT 9999 SCT030/// 16/08 Q1009

Ora: 11:20 (10:20 UTC)


TAF: mancante

Osservazioni e previsioni meteorologiche di più di 4000 aeroporti (messaggi METAR e TAF).

Le stazioni disponibili sono rappresentate dai dischi gialli e rossi sulla carta.

Puntare il mouse per vedere il nome della stazione.

Clicca sopra per visualizzare le osservazioni e previsioni meteorologiche.

Per cambiare la mappa : fare clic sui pulsanti verdi con una croce nera per ingrandire, il pulsante verde con un trattino per diminuire, o sulla freccia verde per le mappe adiacenti.


METAR-TAF: